createdAt,value
2024-04-18T00:01:51.622Z,2.03
2024-04-18T00:04:19.434Z,2.25
2024-04-18T00:06:47.300Z,2.17
2024-04-18T00:09:17.338Z,2.17
2024-04-18T00:11:47.757Z,2.30
2024-04-18T00:14:15.731Z,2.47
2024-04-18T00:16:43.290Z,2.42
2024-04-18T00:19:19.872Z,2.40
2024-04-18T00:22:00.206Z,2.67
2024-04-18T00:24:30.741Z,2.60
2024-04-18T00:26:58.326Z,2.23
2024-04-18T00:29:38.241Z,2.30
2024-04-18T00:32:12.218Z,2.38
2024-04-18T00:35:00.004Z,2.17
2024-04-18T00:37:37.167Z,2.30
2024-04-18T00:40:05.088Z,1.90
2024-04-18T00:42:39.446Z,2.10
2024-04-18T00:45:07.710Z,2.40
2024-04-18T00:47:48.994Z,2.20
2024-04-18T00:50:17.119Z,2.25
2024-04-18T00:52:44.574Z,2.20
2024-04-18T00:55:30.614Z,2.33
2024-04-18T00:58:13.657Z,2.03
2024-04-18T01:00:44.438Z,2.22
2024-04-18T01:03:31.019Z,2.28
2024-04-18T01:06:08.477Z,2.30
2024-04-18T01:08:55.363Z,2.15
2024-04-18T01:11:32.426Z,2.40
2024-04-18T01:14:20.917Z,2.20
2024-04-18T01:17:04.636Z,2.50
2024-04-18T01:19:32.592Z,2.00
2024-04-18T01:22:04.046Z,2.20
2024-04-18T01:24:33.899Z,2.38
2024-04-18T01:27:01.710Z,1.92
2024-04-18T01:29:44.514Z,2.47
2024-04-18T01:32:33.980Z,2.20
2024-04-18T01:35:01.939Z,2.50
2024-04-18T01:37:46.841Z,2.60
2024-04-18T01:40:14.506Z,2.45
2024-04-18T01:42:42.289Z,2.58
2024-04-18T01:45:39.332Z,2.40
2024-04-18T01:48:13.633Z,2.50
2024-04-18T01:51:04.242Z,2.55
2024-04-18T01:53:34.518Z,2.30
2024-04-18T01:56:02.005Z,2.10
2024-04-18T01:58:44.520Z,2.30
2024-04-18T02:01:12.036Z,2.60
2024-04-18T02:03:39.763Z,2.30
2024-04-18T02:06:16.599Z,2.60
2024-04-18T02:08:50.406Z,2.72
2024-04-18T02:11:38.558Z,2.40
2024-04-18T02:14:13.600Z,2.47
2024-04-18T02:16:41.140Z,2.25
2024-04-18T02:19:23.761Z,2.60
2024-04-18T02:22:20.126Z,2.75
2024-04-18T02:25:10.070Z,2.63
2024-04-18T02:27:45.466Z,2.67
2024-04-18T02:30:27.204Z,3.28
2024-04-18T02:33:13.838Z,2.72
2024-04-18T02:35:50.472Z,2.90
2024-04-18T02:38:36.533Z,2.80
2024-04-18T02:41:07.683Z,3.17
2024-04-18T02:43:54.300Z,2.88
2024-04-18T02:46:22.723Z,2.47
2024-04-18T02:49:09.200Z,2.50
2024-04-18T02:51:56.519Z,2.87
2024-04-18T02:54:42.627Z,2.90
2024-04-18T02:57:10.428Z,3.38
2024-04-18T02:59:38.001Z,3.00
2024-04-18T03:02:24.911Z,3.13
2024-04-18T03:04:52.560Z,2.90
2024-04-18T03:07:24.407Z,3.20
2024-04-18T03:09:54.078Z,3.30
2024-04-18T03:12:29.904Z,3.13
2024-04-18T03:15:16.009Z,3.22
2024-04-18T03:18:03.779Z,3.07
2024-04-18T03:20:35.802Z,3.45
2024-04-18T03:23:10.260Z,3.15
2024-04-18T03:25:56.565Z,3.63
2024-04-18T03:28:24.163Z,3.85
2024-04-18T03:30:51.895Z,3.60
2024-04-18T03:33:19.547Z,3.90
2024-04-18T03:35:47.212Z,3.67
2024-04-18T03:38:14.866Z,3.80
2024-04-18T03:40:42.298Z,3.78
2024-04-18T03:43:09.988Z,3.43
2024-04-18T03:45:37.826Z,3.85
2024-04-18T03:48:24.138Z,3.88
2024-04-18T03:50:51.650Z,4.25
2024-04-18T03:53:19.429Z,4.30
2024-04-18T03:55:46.954Z,3.67
2024-04-18T03:58:14.524Z,3.72
2024-04-18T04:00:49.077Z,4.13
2024-04-18T04:03:16.719Z,3.83
2024-04-18T04:05:47.874Z,3.70
2024-04-18T04:08:15.335Z,4.03
2024-04-18T04:10:43.211Z,3.90
2024-04-18T04:13:11.230Z,4.57
2024-04-18T04:15:48.085Z,4.32
2024-04-18T04:18:35.128Z,4.22
2024-04-18T04:21:38.011Z,4.00
2024-04-18T04:24:06.638Z,4.43
2024-04-18T04:26:52.747Z,3.72
2024-04-18T04:29:20.878Z,4.40
2024-04-18T04:31:48.475Z,3.65
2024-04-18T04:34:16.022Z,3.80
2024-04-18T04:36:43.791Z,3.92
2024-04-18T04:39:11.531Z,4.43
2024-04-18T04:41:42.219Z,4.28
2024-04-18T04:44:09.811Z,4.05
2024-04-18T04:46:51.252Z,4.03
2024-04-18T04:49:22.483Z,4.40
2024-04-18T04:52:06.326Z,4.03
2024-04-18T04:54:44.048Z,4.47
2024-04-18T04:57:12.741Z,3.92
2024-04-18T04:59:40.910Z,3.80
2024-04-18T05:02:08.972Z,3.90
2024-04-18T05:04:49.562Z,3.88
2024-04-18T05:07:32.937Z,3.88
2024-04-18T05:10:20.373Z,4.10
2024-04-18T05:12:48.192Z,4.20
2024-04-18T05:15:35.233Z,3.85
2024-04-18T05:18:03.164Z,4.53
2024-04-18T05:20:30.773Z,4.07
2024-04-18T05:22:58.816Z,4.38
2024-04-18T05:25:26.566Z,3.97
2024-04-18T05:28:21.741Z,3.90
2024-04-18T05:31:03.490Z,4.07
2024-04-18T05:33:32.233Z,3.83
2024-04-18T05:36:00.183Z,4.30
2024-04-18T05:38:28.367Z,4.00
2024-04-18T05:40:56.607Z,4.32
2024-04-18T05:43:44.796Z,4.78
2024-04-18T05:46:14.935Z,4.93
2024-04-18T05:48:42.942Z,4.70
2024-04-18T05:51:11.271Z,4.13
2024-04-18T05:54:03.899Z,3.90
2024-04-18T05:56:31.716Z,4.20
2024-04-18T05:58:59.260Z,3.72
2024-04-18T06:01:27.315Z,3.40
2024-04-18T06:03:55.094Z,3.23
2024-04-18T06:06:24.698Z,4.05
2024-04-18T06:09:39.391Z,3.40
2024-04-18T06:12:08.926Z,3.22
2024-04-18T06:14:38.267Z,3.05
2024-04-18T06:17:08.664Z,3.50
2024-04-18T06:19:54.381Z,3.05
2024-04-18T06:22:40.124Z,3.03
2024-04-18T06:25:27.963Z,2.80
2024-04-18T06:27:57.747Z,2.85
2024-04-18T06:30:26.530Z,2.40
2024-04-18T06:32:54.771Z,2.50
2024-04-18T06:35:22.750Z,2.67
2024-04-18T06:37:52.927Z,2.15
2024-04-18T06:40:25.283Z,2.58
2024-04-18T06:42:53.533Z,2.30
2024-04-18T06:45:23.589Z,4.70
2024-04-18T06:47:51.772Z,2.70
2024-04-18T06:50:23.258Z,2.75
2024-04-18T06:52:56.384Z,2.53
2024-04-18T06:55:25.332Z,2.37
2024-04-18T06:57:54.281Z,2.95
2024-04-18T07:00:28.652Z,3.00
2024-04-18T07:02:57.957Z,3.15
2024-04-18T07:05:51.561Z,2.53
2024-04-18T07:08:25.849Z,2.30
2024-04-18T07:10:54.927Z,2.33
2024-04-18T07:13:34.797Z,2.22
2024-04-18T07:16:36.224Z,2.15
2024-04-18T07:19:26.310Z,2.17
2024-04-18T07:22:01.814Z,2.50
2024-04-18T07:24:51.209Z,2.40
2024-04-18T07:27:19.153Z,2.50
2024-04-18T07:29:47.106Z,2.20
2024-04-18T07:32:16.309Z,2.20
2024-04-18T07:34:44.688Z,2.27
2024-04-18T07:37:12.440Z,2.30
2024-04-18T07:39:40.997Z,2.20
2024-04-18T07:42:12.881Z,2.45
2024-04-18T07:44:46.852Z,2.70
2024-04-18T07:47:15.855Z,1.90
2024-04-18T07:49:46.207Z,1.75
2024-04-18T07:52:17.314Z,2.13
2024-04-18T07:54:45.768Z,2.10
2024-04-18T07:57:14.280Z,2.13
2024-04-18T07:59:43.581Z,1.60
2024-04-18T08:02:16.824Z,2.00
2024-04-18T08:04:54.981Z,2.10
2024-04-18T08:07:33.050Z,2.10
2024-04-18T08:10:08.297Z,2.03
2024-04-18T08:12:43.037Z,2.00
2024-04-18T08:15:23.463Z,2.08
2024-04-18T08:17:58.073Z,1.92
2024-04-18T08:20:25.956Z,2.30
2024-04-18T08:22:53.713Z,2.67
2024-04-18T08:25:21.915Z,2.00
2024-04-18T08:27:50.044Z,1.95
2024-04-18T08:30:18.314Z,1.80
2024-04-18T08:32:45.916Z,1.98
2024-04-18T08:35:15.612Z,2.08
2024-04-18T08:37:43.481Z,2.10
2024-04-18T08:40:14.898Z,1.70
2024-04-18T08:42:46.096Z,1.93
2024-04-18T08:45:14.564Z,2.00
2024-04-18T08:47:42.719Z,1.90
2024-04-18T08:50:28.628Z,1.90
2024-04-18T08:53:06.660Z,1.92
2024-04-18T08:55:37.372Z,1.60
2024-04-18T08:58:10.749Z,2.55
2024-04-18T09:00:45.569Z,1.90
2024-04-18T09:03:16.143Z,1.73
2024-04-18T09:05:54.640Z,1.75
2024-04-18T09:08:22.247Z,1.60
2024-04-18T09:10:50.712Z,1.77
2024-04-18T09:13:20.982Z,1.60
2024-04-18T09:15:49.196Z,1.63
2024-04-18T09:18:17.067Z,1.63
2024-04-18T09:20:45.208Z,1.65
2024-04-18T09:23:13.165Z,1.75
2024-04-18T09:25:57.549Z,2.05
2024-04-18T09:28:29.402Z,1.60
2024-04-18T09:31:02.164Z,2.45
2024-04-18T09:33:31.020Z,2.20
2024-04-18T09:36:01.766Z,1.50
2024-04-18T09:38:36.401Z,1.75
2024-04-18T09:41:29.659Z,1.77
2024-04-18T09:44:08.412Z,1.80
2024-04-18T09:46:36.198Z,1.90
2024-04-18T09:49:10.859Z,1.60
2024-04-18T09:51:41.959Z,1.60
2024-04-18T09:54:17.889Z,1.70
2024-04-18T09:56:48.632Z,1.85
2024-04-18T09:59:43.875Z,1.52
2024-04-18T10:02:14.144Z,1.60
2024-04-18T10:04:50.468Z,1.70
2024-04-18T10:07:18.789Z,1.50
2024-04-18T10:09:48.696Z,1.80
2024-04-18T10:12:16.618Z,1.48
2024-04-18T10:14:44.428Z,1.25
2024-04-18T10:17:32.286Z,1.20
2024-04-18T10:20:03.882Z,1.40
2024-04-18T10:22:45.236Z,1.83
2024-04-18T10:25:21.844Z,1.67
2024-04-18T10:27:49.982Z,1.30
2024-04-18T10:30:18.075Z,1.30
2024-04-18T10:32:46.546Z,2.50
2024-04-18T10:35:18.496Z,2.10
2024-04-18T10:37:51.446Z,1.80
2024-04-18T10:40:22.249Z,1.75
2024-04-18T10:42:50.335Z,1.33
2024-04-18T10:45:18.415Z,1.33
2024-04-18T10:47:49.817Z,1.30
2024-04-18T10:50:18.126Z,1.50
2024-04-18T10:52:45.802Z,1.63
2024-04-18T10:55:13.500Z,1.15
2024-04-18T10:57:45.396Z,1.40
2024-04-18T11:00:28.035Z,1.90
2024-04-18T11:03:02.308Z,1.70
2024-04-18T11:05:44.167Z,1.50
2024-04-18T11:08:25.252Z,1.70
2024-04-18T11:11:06.147Z,1.70
2024-04-18T11:13:40.822Z,1.70
2024-04-18T11:16:22.019Z,1.50
2024-04-18T11:18:52.046Z,1.60
2024-04-18T11:21:20.027Z,1.92
2024-04-18T11:23:57.124Z,1.80
2024-04-18T11:26:29.005Z,1.77
2024-04-18T11:28:58.750Z,1.80
2024-04-18T11:31:26.526Z,1.50
2024-04-18T11:33:57.087Z,1.85
2024-04-18T11:36:25.422Z,1.97
2024-04-18T11:39:02.878Z,1.73
2024-04-18T11:41:34.140Z,1.90
2024-04-18T11:44:03.244Z,1.80
2024-04-18T11:46:32.955Z,1.70
2024-04-18T11:49:01.197Z,2.07
2024-04-18T11:51:32.204Z,1.58
2024-04-18T11:54:00.249Z,1.70
2024-04-18T11:56:37.101Z,1.45
2024-04-18T11:59:28.430Z,1.70
2024-04-18T12:01:56.584Z,1.73
2024-04-18T12:04:24.723Z,1.95
2024-04-18T12:06:53.712Z,1.92
2024-04-18T12:09:30.396Z,1.90
2024-04-18T12:12:02.599Z,2.33
2024-04-18T12:14:48.768Z,1.90
2024-04-18T12:17:29.497Z,1.80
2024-04-18T12:20:16.958Z,1.85
2024-04-18T12:22:45.435Z,1.70
2024-04-18T12:25:16.867Z,1.80
2024-04-18T12:27:45.030Z,1.80
2024-04-18T12:30:39.385Z,1.40
2024-04-18T12:33:20.130Z,1.60
2024-04-18T12:35:49.258Z,1.88
2024-04-18T12:38:17.210Z,1.60
2024-04-18T12:40:45.810Z,2.00
2024-04-18T12:43:16.487Z,1.70
2024-04-18T12:46:06.442Z,2.00
2024-04-18T12:48:57.036Z,1.63
2024-04-18T12:51:26.225Z,1.70
2024-04-18T12:53:55.840Z,1.90
2024-04-18T12:56:49.284Z,1.40
2024-04-18T12:59:23.523Z,1.85
2024-04-18T13:01:51.527Z,1.52
2024-04-18T13:04:22.038Z,1.90
2024-04-18T13:06:49.877Z,1.75
2024-04-18T13:09:31.608Z,1.93
2024-04-18T13:12:05.678Z,2.00
2024-04-18T13:14:51.867Z,1.85
2024-04-18T13:17:19.988Z,1.75
2024-04-18T13:19:48.207Z,1.95
2024-04-18T13:22:16.092Z,2.10
2024-04-18T13:24:43.915Z,2.28
2024-04-18T13:27:28.274Z,1.60
2024-04-18T13:29:56.459Z,1.50
2024-04-18T13:32:37.893Z,1.98
2024-04-18T13:35:07.788Z,1.60
2024-04-18T13:37:35.344Z,1.50
2024-04-18T13:40:19.518Z,1.60
2024-04-18T13:42:57.897Z,1.60
2024-04-18T13:45:32.315Z,1.65
2024-04-18T13:48:06.916Z,1.47
2024-04-18T13:50:45.123Z,1.60
2024-04-18T13:53:16.284Z,2.00
2024-04-18T13:55:50.640Z,1.70
2024-04-18T13:58:19.376Z,1.70
2024-04-18T14:01:00.579Z,1.90
2024-04-18T14:03:28.866Z,1.70
2024-04-18T14:06:09.499Z,1.83
2024-04-18T14:08:41.230Z,1.60
2024-04-18T14:11:27.834Z,1.70
2024-04-18T14:14:09.167Z,1.97
2024-04-18T14:16:56.489Z,1.80
2024-04-18T14:19:34.039Z,1.85
2024-04-18T14:22:06.649Z,1.90
2024-04-18T14:24:35.159Z,1.73
2024-04-18T14:27:03.246Z,1.67
2024-04-18T14:29:30.945Z,2.00
2024-04-18T14:32:01.344Z,1.90
2024-04-18T14:34:48.634Z,1.70
2024-04-18T14:37:19.423Z,1.58
2024-04-18T14:39:48.106Z,1.70
2024-04-18T14:42:15.940Z,1.58
2024-04-18T14:44:43.626Z,1.50
2024-04-18T14:47:15.243Z,1.67
2024-04-18T14:50:01.831Z,1.92
2024-04-18T14:52:37.900Z,1.87
2024-04-18T14:55:28.832Z,1.75
2024-04-18T14:58:15.256Z,1.83
2024-04-18T15:00:53.112Z,2.00
2024-04-18T15:03:24.185Z,2.00
2024-04-18T15:05:55.973Z,2.30
2024-04-18T15:08:40.734Z,2.10
2024-04-18T15:11:23.767Z,2.30
2024-04-18T15:14:07.589Z,2.03
2024-04-18T15:16:35.359Z,2.22
2024-04-18T15:19:03.189Z,2.13
2024-04-18T15:22:00.231Z,2.03
2024-04-18T15:24:44.123Z,2.00
2024-04-18T15:27:11.746Z,2.50
2024-04-18T15:29:39.420Z,1.92
2024-04-18T15:32:22.325Z,2.03
2024-04-18T15:34:50.099Z,1.90
2024-04-18T15:37:36.175Z,2.15
2024-04-18T15:40:04.351Z,2.40
2024-04-18T15:42:32.140Z,2.03
2024-04-18T15:45:00.918Z,2.00
2024-04-18T15:47:32.863Z,2.15
2024-04-18T15:50:18.767Z,2.13
2024-04-18T15:52:46.547Z,2.40
2024-04-18T15:55:30.977Z,2.50
2024-04-18T15:58:17.121Z,2.20
2024-04-18T16:00:45.169Z,1.90
2024-04-18T16:03:33.042Z,2.17
2024-04-18T16:06:20.738Z,2.45
2024-04-18T16:09:07.169Z,2.40
2024-04-18T16:11:41.006Z,2.30
2024-04-18T16:14:29.059Z,2.30
2024-04-18T16:16:56.694Z,2.30
2024-04-18T16:19:39.857Z,2.10
2024-04-18T16:22:07.475Z,2.00
2024-04-18T16:24:50.221Z,2.47
2024-04-18T16:27:17.972Z,2.10
2024-04-18T16:30:01.012Z,1.90
2024-04-18T16:32:40.711Z,2.05
2024-04-18T16:35:08.436Z,2.00
2024-04-18T16:37:40.867Z,1.97
2024-04-18T16:40:14.724Z,1.83
2024-04-18T16:43:03.565Z,1.92
2024-04-18T16:45:50.083Z,2.85
2024-04-18T16:48:17.757Z,1.67
2024-04-18T16:50:45.601Z,2.20
2024-04-18T16:53:13.197Z,2.28
2024-04-18T16:55:43.821Z,2.38
2024-04-18T16:58:17.312Z,2.60
2024-04-18T17:01:00.280Z,2.03
2024-04-18T17:03:28.559Z,2.20
2024-04-18T17:06:03.123Z,1.90
2024-04-18T17:08:31.156Z,2.33
2024-04-18T17:10:58.932Z,2.40
2024-04-18T17:13:45.195Z,2.30
2024-04-18T17:16:12.892Z,2.00
2024-04-18T17:18:49.318Z,2.33
2024-04-18T17:21:17.133Z,2.40
2024-04-18T17:23:44.767Z,2.70
2024-04-18T17:26:12.408Z,2.40
2024-04-18T17:28:40.184Z,2.10
2024-04-18T17:31:08.084Z,2.30
2024-04-18T17:33:35.976Z,2.65
2024-04-18T17:36:04.526Z,2.20
2024-04-18T17:38:50.197Z,2.53
2024-04-18T17:41:32.635Z,2.20
2024-04-18T17:44:18.591Z,2.08
2024-04-18T17:46:58.889Z,2.30
2024-04-18T17:49:27.087Z,2.03
2024-04-18T17:51:55.156Z,2.00
2024-04-18T17:54:23.040Z,2.10
2024-04-18T17:56:51.157Z,1.65
2024-04-18T17:59:20.697Z,2.05
2024-04-18T18:01:48.431Z,2.08
2024-04-18T18:04:16.142Z,1.95
2024-04-18T18:06:44.163Z,2.20
2024-04-18T18:09:11.736Z,1.83
2024-04-18T18:11:40.330Z,2.20
2024-04-18T18:14:08.147Z,1.73
2024-04-18T18:16:54.294Z,1.90
2024-04-18T18:19:22.095Z,1.80
2024-04-18T18:21:59.512Z,1.77
2024-04-18T18:24:27.192Z,1.50
2024-04-18T18:26:54.717Z,1.55
2024-04-18T18:29:22.451Z,1.33
2024-04-18T18:32:08.601Z,1.57
2024-04-18T18:34:36.699Z,1.42
2024-04-18T18:37:04.670Z,1.50
2024-04-18T18:39:32.279Z,1.33
2024-04-18T18:41:59.856Z,1.45
2024-04-18T18:44:29.181Z,1.50
2024-04-18T18:46:56.883Z,1.45
2024-04-18T18:49:44.443Z,1.50
2024-04-18T18:52:12.113Z,1.40
2024-04-18T18:54:39.907Z,1.40
2024-04-18T18:57:08.609Z,1.50
2024-04-18T18:59:36.378Z,1.40
2024-04-18T19:02:04.190Z,1.58
2024-04-18T19:04:51.749Z,1.77
2024-04-18T19:07:19.362Z,1.63
2024-04-18T19:09:47.061Z,1.80
2024-04-18T19:12:14.683Z,1.50
2024-04-18T19:14:42.282Z,1.63
2024-04-18T19:17:10.711Z,1.88
2024-04-18T19:19:39.041Z,1.65
2024-04-18T19:22:06.600Z,1.60
2024-04-18T19:24:34.215Z,1.50
2024-04-18T19:27:02.152Z,1.40
2024-04-18T19:29:39.674Z,1.55
2024-04-18T19:32:18.550Z,1.35
2024-04-18T19:34:46.168Z,1.80
2024-04-18T19:37:13.707Z,1.67
2024-04-18T19:39:41.352Z,1.75
2024-04-18T19:42:09.224Z,1.73
2024-04-18T19:44:36.859Z,1.58
2024-04-18T19:47:06.975Z,1.30
2024-04-18T19:49:37.563Z,1.00
2024-04-18T19:52:08.306Z,1.20
2024-04-18T19:54:36.955Z,1.20
2024-04-18T19:57:05.322Z,1.40
2024-04-18T19:59:33.014Z,1.10
2024-04-18T20:02:00.563Z,1.30
2024-04-18T20:04:28.535Z,1.45
2024-04-18T20:06:56.134Z,1.48
2024-04-18T20:09:23.857Z,1.30
2024-04-18T20:11:51.502Z,1.50
2024-04-18T20:14:22.000Z,1.42
2024-04-18T20:16:49.597Z,1.42
2024-04-18T20:19:17.811Z,1.27
2024-04-18T20:21:45.690Z,1.90
2024-04-18T20:24:14.627Z,1.67
2024-04-18T20:27:00.582Z,1.50
2024-04-18T20:29:46.375Z,1.70
2024-04-18T20:32:24.248Z,1.45
2024-04-18T20:34:52.381Z,1.65
2024-04-18T20:37:20.225Z,1.60
2024-04-18T20:39:48.025Z,1.70
2024-04-18T20:42:15.807Z,1.90
2024-04-18T20:45:05.229Z,1.88
2024-04-18T20:47:33.214Z,1.70
2024-04-18T20:50:03.581Z,1.97
2024-04-18T20:52:31.433Z,1.77
2024-04-18T20:54:59.024Z,2.00
2024-04-18T20:57:27.884Z,2.00
2024-04-18T20:59:55.837Z,1.65
2024-04-18T21:02:23.662Z,1.90
2024-04-18T21:04:51.322Z,1.52
2024-04-18T21:07:18.888Z,1.80
2024-04-18T21:09:46.572Z,1.80
2024-04-18T21:12:14.112Z,1.70
2024-04-18T21:14:41.773Z,1.90
2024-04-18T21:17:09.338Z,1.67
2024-04-18T21:19:37.043Z,1.80
2024-04-18T21:22:05.819Z,1.75
2024-04-18T21:24:33.450Z,1.90
2024-04-18T21:27:01.063Z,1.80
2024-04-18T21:29:28.748Z,1.80
2024-04-18T21:31:56.249Z,1.63
2024-04-18T21:34:23.893Z,1.80
2024-04-18T21:36:51.486Z,2.10
2024-04-18T21:39:19.194Z,1.80
2024-04-18T21:41:47.066Z,1.88
2024-04-18T21:44:14.809Z,1.67
2024-04-18T21:46:42.424Z,1.88
2024-04-18T21:49:09.962Z,1.95
2024-04-18T21:51:37.564Z,1.80
2024-04-18T21:54:05.126Z,1.73
2024-04-18T21:56:32.919Z,2.10
2024-04-18T21:59:00.572Z,2.05
2024-04-18T22:01:42.267Z,1.90
2024-04-18T22:04:10.913Z,1.90
2024-04-18T22:06:38.947Z,1.85
2024-04-18T22:09:06.743Z,1.90
2024-04-18T22:11:34.410Z,2.10
2024-04-18T22:14:02.171Z,2.17
2024-04-18T22:16:29.764Z,2.10
2024-04-18T22:18:57.693Z,1.90
2024-04-18T22:21:35.669Z,2.60
2024-04-18T22:24:04.666Z,2.60
2024-04-18T22:26:32.262Z,2.10
2024-04-18T22:28:59.899Z,2.27
2024-04-18T22:31:27.595Z,2.20
2024-04-18T22:33:55.606Z,2.42
2024-04-18T22:36:23.322Z,2.15
2024-04-18T22:38:50.920Z,2.33
2024-04-18T22:41:18.748Z,2.07
2024-04-18T22:43:46.362Z,2.13
2024-04-18T22:46:14.041Z,2.45
2024-04-18T22:48:42.044Z,2.25
2024-04-18T22:51:09.726Z,2.20
2024-04-18T22:53:37.650Z,2.30
2024-04-18T22:56:05.322Z,2.58
2024-04-18T22:58:33.397Z,2.40
2024-04-18T23:01:04.368Z,2.45
2024-04-18T23:03:32.257Z,2.20
2024-04-18T23:06:15.783Z,2.40
2024-04-18T23:08:43.847Z,2.75
2024-04-18T23:11:11.535Z,2.60
2024-04-18T23:13:39.463Z,2.80
2024-04-18T23:16:07.327Z,3.22
2024-04-18T23:18:35.921Z,3.23
2024-04-18T23:21:03.713Z,2.80
2024-04-18T23:23:34.502Z,2.85
2024-04-18T23:26:02.633Z,2.60
2024-04-18T23:28:30.696Z,3.35
2024-04-18T23:30:58.327Z,2.83
2024-04-18T23:33:26.119Z,2.63
2024-04-18T23:35:53.869Z,2.80
2024-04-18T23:38:21.851Z,2.33
2024-04-18T23:40:49.993Z,2.78
2024-04-18T23:43:18.068Z,2.73
2024-04-18T23:45:45.712Z,2.45
2024-04-18T23:48:13.931Z,2.60
2024-04-18T23:50:42.887Z,2.88
2024-04-18T23:53:11.103Z,2.60
2024-04-18T23:55:40.351Z,2.70
2024-04-18T23:58:07.968Z,2.55
